sensor_id;sensor_type;location;lat;lon;timestamp;pressure;altitude;pressure_sealevel;temperature;humidity
11830;BME280;5972;42.134;24.718;2022-12-18T00:02:14;100346.91;;;10.90;100.00
11830;BME280;5972;42.134;24.718;2022-12-18T00:04:42;100348.00;;;10.89;100.00
11830;BME280;5972;42.134;24.718;2022-12-18T00:07:09;100359.63;;;10.90;100.00
11830;BME280;5972;42.134;24.718;2022-12-18T00:09:36;100367.81;;;10.72;100.00
11830;BME280;5972;42.134;24.718;2022-12-18T00:12:03;100365.22;;;10.84;100.00
11830;BME280;5972;42.134;24.718;2022-12-18T00:14:31;100379.34;;;10.99;100.00
11830;BME280;5972;42.134;24.718;2022-12-18T00:16:58;100384.91;;;11.02;100.00
11830;BME280;5972;42.134;24.718;2022-12-18T00:19:26;100389.84;;;11.00;100.00
11830;BME280;5972;42.134;24.718;2022-12-18T00:21:54;100393.41;;;10.92;100.00
11830;BME280;5972;42.134;24.718;2022-12-18T00:24:21;100403.53;;;11.04;100.00
11830;BME280;5972;42.134;24.718;2022-12-18T00:26:47;100404.94;;;11.10;100.00
11830;BME280;5972;42.134;24.718;2022-12-18T00:29:14;100405.25;;;11.17;100.00
11830;BME280;5972;42.134;24.718;2022-12-18T00:31:41;100405.72;;;11.19;100.00
11830;BME280;5972;42.134;24.718;2022-12-18T00:34:09;100411.25;;;11.22;100.00
11830;BME280;5972;42.134;24.718;2022-12-18T00:36:37;100412.06;;;11.23;100.00
11830;BME280;5972;42.134;24.718;2022-12-18T00:39:05;100408.69;;;11.26;100.00
11830;BME280;5972;42.134;24.718;2022-12-18T00:41:32;100416.69;;;11.22;100.00
11830;BME280;5972;42.134;24.718;2022-12-18T00:44:17;100423.41;;;11.16;100.00
11830;BME280;5972;42.134;24.718;2022-12-18T00:46:45;100431.06;;;11.14;100.00
11830;BME280;5972;42.134;24.718;2022-12-18T00:49:13;100429.53;;;10.96;100.00
11830;BME280;5972;42.134;24.718;2022-12-18T00:51:40;100438.72;;;10.57;100.00
11830;BME280;5972;42.134;24.718;2022-12-18T00:54:08;100443.00;;;10.75;100.00
11830;BME280;5972;42.134;24.718;2022-12-18T00:56:36;100447.47;;;10.63;100.00
11830;BME280;5972;42.134;24.718;2022-12-18T00:59:03;100438.53;;;10.54;100.00
11830;BME280;5972;42.134;24.718;2022-12-18T01:01:30;100432.03;;;10.37;100.00
11830;BME280;5972;42.134;24.718;2022-12-18T01:03:58;100436.03;;;10.31;100.00
11830;BME280;5972;42.134;24.718;2022-12-18T01:06:25;100440.97;;;10.29;100.00
11830;BME280;5972;42.134;24.718;2022-12-18T01:08:52;100441.13;;;10.24;100.00
11830;BME280;5972;42.134;24.718;2022-12-18T01:11:21;100429.31;;;10.12;100.00
11830;BME280;5972;42.134;24.718;2022-12-18T01:13:47;100428.38;;;10.33;100.00
11830;BME280;5972;42.134;24.718;2022-12-18T01:16:16;100434.56;;;10.42;100.00
11830;BME280;5972;42.134;24.718;2022-12-18T01:18:43;100433.50;;;10.35;100.00
11830;BME280;5972;42.134;24.718;2022-12-18T01:21:11;100440.97;;;10.29;100.00
11830;BME280;5972;42.134;24.718;2022-12-18T01:23:39;100437.78;;;10.36;100.00
11830;BME280;5972;42.134;24.718;2022-12-18T01:26:06;100436.97;;;10.44;100.00
11830;BME280;5972;42.134;24.718;2022-12-18T01:28:34;100438.44;;;10.41;100.00
11830;BME280;5972;42.134;24.718;2022-12-18T01:31:12;100430.31;;;10.41;100.00
11830;BME280;5972;42.134;24.718;2022-12-18T01:33:40;100433.81;;;10.33;100.00
11830;BME280;5972;42.134;24.718;2022-12-18T01:36:07;100431.25;;;10.37;100.00
11830;BME280;5972;42.134;24.718;2022-12-18T01:38:34;100429.66;;;10.45;100.00
11830;BME280;5972;42.134;24.718;2022-12-18T01:41:01;100426.78;;;10.58;100.00
11830;BME280;5972;42.134;24.718;2022-12-18T01:43:46;100441.22;;;10.71;100.00
11830;BME280;5972;42.134;24.718;2022-12-18T01:46:14;100439.94;;;10.77;100.00
11830;BME280;5972;42.134;24.718;2022-12-18T01:48:41;100447.75;;;10.78;100.00
11830;BME280;5972;42.134;24.718;2022-12-18T01:51:09;100428.78;;;10.78;100.00
11830;BME280;5972;42.134;24.718;2022-12-18T01:53:37;100447.41;;;10.89;100.00
11830;BME280;5972;42.134;24.718;2022-12-18T01:56:05;100444.06;;;10.92;100.00
11830;BME280;5972;42.134;24.718;2022-12-18T01:58:38;100442.91;;;11.01;100.00
11830;BME280;5972;42.134;24.718;2022-12-18T02:01:08;100430.91;;;11.11;100.00
11830;BME280;5972;42.134;24.718;2022-12-18T02:03:35;100444.63;;;11.06;100.00
11830;BME280;5972;42.134;24.718;2022-12-18T02:06:09;100448.91;;;11.15;100.00
11830;BME280;5972;42.134;24.718;2022-12-18T02:08:43;100450.66;;;11.20;100.00
11830;BME280;5972;42.134;24.718;2022-12-18T02:11:17;100443.97;;;11.17;100.00
11830;BME280;5972;42.134;24.718;2022-12-18T02:13:49;100450.31;;;11.21;100.00
11830;BME280;5972;42.134;24.718;2022-12-18T02:16:24;100457.81;;;11.24;100.00
11830;BME280;5972;42.134;24.718;2022-12-18T02:18:58;100455.22;;;11.28;100.00
11830;BME280;5972;42.134;24.718;2022-12-18T02:24:29;100461.91;;;11.31;100.00
11830;BME280;5972;42.134;24.718;2022-12-18T02:26:59;100460.94;;;11.35;100.00
11830;BME280;5972;42.134;24.718;2022-12-18T02:29:33;100460.28;;;11.38;100.00
11830;BME280;5972;42.134;24.718;2022-12-18T02:32:04;100468.09;;;11.40;100.00
11830;BME280;5972;42.134;24.718;2022-12-18T02:34:36;100461.69;;;11.44;100.00
11830;BME280;5972;42.134;24.718;2022-12-18T02:37:06;100461.06;;;11.47;100.00
11830;BME280;5972;42.134;24.718;2022-12-18T02:39:37;100449.44;;;11.38;100.00
11830;BME280;5972;42.134;24.718;2022-12-18T02:42:07;100452.75;;;11.44;100.00
11830;BME280;5972;42.134;24.718;2022-12-18T02:44:35;100441.19;;;11.35;100.00
11830;BME280;5972;42.134;24.718;2022-12-18T02:47:10;100447.50;;;11.47;100.00
11830;BME280;5972;42.134;24.718;2022-12-18T02:49:46;100445.91;;;11.46;100.00
11830;BME280;5972;42.134;24.718;2022-12-18T02:52:24;100454.47;;;11.48;100.00
11830;BME280;5972;42.134;24.718;2022-12-18T02:54:59;100447.81;;;11.46;100.00
11830;BME280;5972;42.134;24.718;2022-12-18T02:57:34;100452.56;;;11.49;100.00
11830;BME280;5972;42.134;24.718;2022-12-18T03:00:07;100455.63;;;11.47;100.00
11830;BME280;5972;42.134;24.718;2022-12-18T03:02:38;100456.44;;;11.48;100.00
11830;BME280;5972;42.134;24.718;2022-12-18T03:05:11;100452.25;;;11.50;100.00
11830;BME280;5972;42.134;24.718;2022-12-18T03:07:43;100454.03;;;11.46;100.00
11830;BME280;5972;42.134;24.718;2022-12-18T03:10:14;100466.16;;;11.40;100.00
11830;BME280;5972;42.134;24.718;2022-12-18T03:12:47;100465.84;;;11.42;100.00
11830;BME280;5972;42.134;24.718;2022-12-18T03:15:21;100460.09;;;11.43;100.00
11830;BME280;5972;42.134;24.718;2022-12-18T03:17:52;100448.19;;;11.36;100.00
11830;BME280;5972;42.134;24.718;2022-12-18T03:20:22;100475.84;;;11.50;100.00
11830;BME280;5972;42.134;24.718;2022-12-18T03:23:04;100477.16;;;11.44;100.00
11830;BME280;5972;42.134;24.718;2022-12-18T03:25:35;100472.22;;;11.37;100.00
11830;BME280;5972;42.134;24.718;2022-12-18T03:28:08;100470.31;;;11.38;100.00
11830;BME280;5972;42.134;24.718;2022-12-18T03:30:40;100475.72;;;11.38;100.00
11830;BME280;5972;42.134;24.718;2022-12-18T03:33:11;100485.66;;;11.34;100.00
11830;BME280;5972;42.134;24.718;2022-12-18T03:35:42;100480.22;;;11.34;100.00
11830;BME280;5972;42.134;24.718;2022-12-18T03:38:10;100487.72;;;11.37;100.00
11830;BME280;5972;42.134;24.718;2022-12-18T03:40:44;100489.47;;;11.33;100.00
11830;BME280;5972;42.134;24.718;2022-12-18T03:43:20;100495.06;;;11.36;100.00
11830;BME280;5972;42.134;24.718;2022-12-18T03:45:55;100507.81;;;11.36;100.00
11830;BME280;5972;42.134;24.718;2022-12-18T03:48:29;100515.13;;;11.35;100.00
11830;BME280;5972;42.134;24.718;2022-12-18T03:51:00;100517.53;;;11.37;100.00
11830;BME280;5972;42.134;24.718;2022-12-18T03:53:33;100521.16;;;11.41;100.00
11830;BME280;5972;42.134;24.718;2022-12-18T03:56:04;100521.34;;;11.36;100.00
11830;BME280;5972;42.134;24.718;2022-12-18T03:58:34;100525.66;;;11.37;100.00
11830;BME280;5972;42.134;24.718;2022-12-18T04:01:04;100524.25;;;11.31;100.00
11830;BME280;5972;42.134;24.718;2022-12-18T04:03:36;100518.16;;;11.34;100.00
11830;BME280;5972;42.134;24.718;2022-12-18T04:06:05;100528.81;;;11.39;100.00
11830;BME280;5972;42.134;24.718;2022-12-18T04:08:33;100533.00;;;11.36;100.00
11830;BME280;5972;42.134;24.718;2022-12-18T04:11:00;100538.59;;;11.31;100.00
11830;BME280;5972;42.134;24.718;2022-12-18T04:13:29;100530.91;;;11.33;100.00
11830;BME280;5972;42.134;24.718;2022-12-18T04:15:59;100547.16;;;11.42;100.00
11830;BME280;5972;42.134;24.718;2022-12-18T04:18:26;100549.19;;;11.45;100.00
11830;BME280;5972;42.134;24.718;2022-12-18T04:20:53;100542.19;;;11.44;100.00
11830;BME280;5972;42.134;24.718;2022-12-18T04:23:20;100539.16;;;11.45;100.00
11830;BME280;5972;42.134;24.718;2022-12-18T04:25:47;100554.16;;;11.43;100.00
11830;BME280;5972;42.134;24.718;2022-12-18T04:28:14;100557.50;;;11.40;100.00
11830;BME280;5972;42.134;24.718;2022-12-18T04:30:41;100561.66;;;11.37;100.00
11830;BME280;5972;42.134;24.718;2022-12-18T04:33:10;100559.75;;;11.38;100.00
11830;BME280;5972;42.134;24.718;2022-12-18T04:35:37;100554.50;;;11.33;100.00
11830;BME280;5972;42.134;24.718;2022-12-18T04:38:05;100560.41;;;11.26;100.00
11830;BME280;5972;42.134;24.718;2022-12-18T04:40:35;100559.00;;;11.20;100.00
11830;BME280;5972;42.134;24.718;2022-12-18T04:43:02;100549.31;;;11.02;100.00
11830;BME280;5972;42.134;24.718;2022-12-18T04:45:29;100559.22;;;10.98;100.00
11830;BME280;5972;42.134;24.718;2022-12-18T04:47:57;100564.94;;;10.88;100.00
11830;BME280;5972;42.134;24.718;2022-12-18T04:50:25;100563.19;;;10.83;100.00
11830;BME280;5972;42.134;24.718;2022-12-18T04:52:52;100567.50;;;10.84;100.00
11830;BME280;5972;42.134;24.718;2022-12-18T04:55:19;100570.84;;;10.81;100.00
11830;BME280;5972;42.134;24.718;2022-12-18T04:57:46;100583.91;;;10.79;100.00
11830;BME280;5972;42.134;24.718;2022-12-18T05:00:13;100591.22;;;10.78;100.00
11830;BME280;5972;42.134;24.718;2022-12-18T05:02:40;100589.81;;;10.81;100.00
11830;BME280;5972;42.134;24.718;2022-12-18T05:05:07;100596.94;;;10.77;100.00
11830;BME280;5972;42.134;24.718;2022-12-18T05:07:36;100602.38;;;10.77;100.00
11830;BME280;5972;42.134;24.718;2022-12-18T05:10:09;100609.03;;;10.71;100.00
11830;BME280;5972;42.134;24.718;2022-12-18T05:12:36;100613.34;;;10.72;100.00
11830;BME280;5972;42.134;24.718;2022-12-18T05:15:23;100608.75;;;10.72;100.00
11830;BME280;5972;42.134;24.718;2022-12-18T05:17:50;100614.31;;;10.67;100.00
11830;BME280;5972;42.134;24.718;2022-12-18T05:20:17;100612.41;;;10.68;100.00
11830;BME280;5972;42.134;24.718;2022-12-18T05:22:46;100622.91;;;10.69;100.00
11830;BME280;5972;42.134;24.718;2022-12-18T05:25:13;100629.13;;;10.78;100.00
11830;BME280;5972;42.134;24.718;2022-12-18T05:27:40;100633.91;;;10.81;100.00
11830;BME280;5972;42.134;24.718;2022-12-18T05:30:08;100644.59;;;10.87;100.00
11830;BME280;5972;42.134;24.718;2022-12-18T05:32:36;100644.91;;;10.85;100.00
11830;BME280;5972;42.134;24.718;2022-12-18T05:35:05;100659.25;;;10.86;100.00
11830;BME280;5972;42.134;24.718;2022-12-18T05:37:32;100653.34;;;10.83;100.00
11830;BME280;5972;42.134;24.718;2022-12-18T05:40:01;100660.34;;;10.84;100.00
11830;BME280;5972;42.134;24.718;2022-12-18T05:42:28;100660.19;;;10.72;100.00
11830;BME280;5972;42.134;24.718;2022-12-18T05:44:55;100665.91;;;10.71;100.00
11830;BME280;5972;42.134;24.718;2022-12-18T05:47:21;100672.28;;;10.75;100.00
11830;BME280;5972;42.134;24.718;2022-12-18T05:49:49;100671.66;;;10.78;100.00
11830;BME280;5972;42.134;24.718;2022-12-18T05:52:15;100665.91;;;10.79;100.00
11830;BME280;5972;42.134;24.718;2022-12-18T05:54:42;100673.72;;;10.72;100.00
11830;BME280;5972;42.134;24.718;2022-12-18T05:57:10;100680.72;;;10.73;100.00
11830;BME280;5972;42.134;24.718;2022-12-18T05:59:37;100679.28;;;10.76;100.00
11830;BME280;5972;42.134;24.718;2022-12-18T06:02:04;100684.41;;;10.86;100.00
11830;BME280;5972;42.134;24.718;2022-12-18T06:04:31;100676.41;;;10.72;100.00
11830;BME280;5972;42.134;24.718;2022-12-18T06:06:58;100687.56;;;10.88;100.00
11830;BME280;5972;42.134;24.718;2022-12-18T06:09:25;100687.13;;;10.95;100.00
11830;BME280;5972;42.134;24.718;2022-12-18T06:11:52;100686.31;;;10.86;100.00
11830;BME280;5972;42.134;24.718;2022-12-18T06:14:20;100696.69;;;10.92;100.00
11830;BME280;5972;42.134;24.718;2022-12-18T06:16:47;100689.19;;;10.98;100.00
11830;BME280;5972;42.134;24.718;2022-12-18T06:19:15;100705.75;;;11.05;100.00
11830;BME280;5972;42.134;24.718;2022-12-18T06:21:43;100705.13;;;11.08;100.00
11830;BME280;5972;42.134;24.718;2022-12-18T06:24:10;100711.50;;;11.20;100.00
11830;BME280;5972;42.134;24.718;2022-12-18T06:26:37;100709.28;;;11.22;100.00
11830;BME280;5972;42.134;24.718;2022-12-18T06:29:04;100712.13;;;11.26;100.00
11830;BME280;5972;42.134;24.718;2022-12-18T06:31:33;100717.41;;;11.31;100.00
11830;BME280;5972;42.134;24.718;2022-12-18T06:34:02;100716.78;;;11.25;100.00
11830;BME280;5972;42.134;24.718;2022-12-18T06:36:29;100713.91;;;11.22;100.00
11830;BME280;5972;42.134;24.718;2022-12-18T06:38:56;100729.69;;;11.20;100.00
11830;BME280;5972;42.134;24.718;2022-12-18T06:41:24;100739.56;;;11.33;100.00
11830;BME280;5972;42.134;24.718;2022-12-18T06:43:50;100747.38;;;11.17;100.00
11830;BME280;5972;42.134;24.718;2022-12-18T06:46:17;100744.97;;;11.24;100.00
11830;BME280;5972;42.134;24.718;2022-12-18T06:48:48;100748.78;;;11.32;100.00
11830;BME280;5972;42.134;24.718;2022-12-18T06:51:17;100755.03;;;11.24;100.00
11830;BME280;5972;42.134;24.718;2022-12-18T06:53:44;100765.84;;;11.33;100.00
11830;BME280;5972;42.134;24.718;2022-12-18T06:56:11;100761.06;;;11.38;100.00
11830;BME280;5972;42.134;24.718;2022-12-18T06:58:38;100767.44;;;11.34;100.00
11830;BME280;5972;42.134;24.718;2022-12-18T07:01:07;100767.94;;;11.44;100.00
11830;BME280;5972;42.134;24.718;2022-12-18T07:03:34;100767.63;;;11.46;100.00
11830;BME280;5972;42.134;24.718;2022-12-18T07:06:03;100775.13;;;11.40;100.00
11830;BME280;5972;42.134;24.718;2022-12-18T07:08:30;100776.88;;;11.36;100.00
11830;BME280;5972;42.134;24.718;2022-12-18T07:10:56;100787.06;;;11.31;100.00
11830;BME280;5972;42.134;24.718;2022-12-18T07:13:23;100770.31;;;11.20;100.00
11830;BME280;5972;42.134;24.718;2022-12-18T07:15:50;100792.97;;;11.41;100.00
11830;BME280;5972;42.134;24.718;2022-12-18T07:18:17;100791.88;;;11.42;100.00
11830;BME280;5972;42.134;24.718;2022-12-18T07:20:44;100781.63;;;11.13;100.00
11830;BME280;5972;42.134;24.718;2022-12-18T07:23:12;100803.47;;;11.43;100.00
11830;BME280;5972;42.134;24.718;2022-12-18T07:25:39;100814.31;;;11.43;100.00
11830;BME280;5972;42.134;24.718;2022-12-18T07:28:05;100814.97;;;11.40;100.00
11830;BME280;5972;42.134;24.718;2022-12-18T07:30:32;100807.94;;;11.39;100.00
11830;BME280;5972;42.134;24.718;2022-12-18T07:32:59;100812.56;;;11.38;100.00
11830;BME280;5972;42.134;24.718;2022-12-18T07:35:26;100819.75;;;11.34;100.00
11830;BME280;5972;42.134;24.718;2022-12-18T07:37:53;100818.94;;;11.25;100.00
11830;BME280;5972;42.134;24.718;2022-12-18T07:40:21;100822.91;;;11.27;100.00
11830;BME280;5972;42.134;24.718;2022-12-18T07:42:48;100819.59;;;11.31;100.00
11830;BME280;5972;42.134;24.718;2022-12-18T07:45:15;100816.38;;;11.37;100.00
11830;BME280;5972;42.134;24.718;2022-12-18T07:47:42;100825.00;;;11.31;100.00
11830;BME280;5972;42.134;24.718;2022-12-18T07:50:09;100828.50;;;11.40;100.00
11830;BME280;5972;42.134;24.718;2022-12-18T07:52:35;100826.44;;;11.45;100.00
11830;BME280;5972;42.134;24.718;2022-12-18T07:55:03;100836.16;;;11.38;100.00
11830;BME280;5972;42.134;24.718;2022-12-18T07:57:31;100836.31;;;11.33;100.00
11830;BME280;5972;42.134;24.718;2022-12-18T07:59:58;100843.66;;;11.41;100.00
11830;BME280;5972;42.134;24.718;2022-12-18T08:02:25;100842.22;;;11.35;100.00
11830;BME280;5972;42.134;24.718;2022-12-18T08:04:51;100847.19;;;11.41;100.00
11830;BME280;5972;42.134;24.718;2022-12-18T08:07:18;100848.63;;;11.47;100.00
11830;BME280;5972;42.134;24.718;2022-12-18T08:09:45;100861.84;;;11.49;100.00
11830;BME280;5972;42.134;24.718;2022-12-18T08:12:11;100864.25;;;11.50;100.00
11830;BME280;5972;42.134;24.718;2022-12-18T08:14:40;100860.91;;;11.62;100.00
11830;BME280;5972;42.134;24.718;2022-12-18T08:17:06;100865.22;;;11.63;100.00
11830;BME280;5972;42.134;24.718;2022-12-18T08:19:33;100862.97;;;11.56;100.00
11830;BME280;5972;42.134;24.718;2022-12-18T08:22:00;100853.25;;;11.47;100.00
11830;BME280;5972;42.134;24.718;2022-12-18T08:24:27;100875.25;;;11.62;100.00
11830;BME280;5972;42.134;24.718;2022-12-18T08:26:54;100880.38;;;11.73;100.00
11830;BME280;5972;42.134;24.718;2022-12-18T08:29:22;100885.78;;;11.73;100.00
11830;BME280;5972;42.134;24.718;2022-12-18T08:31:50;100886.75;;;11.68;100.00
11830;BME280;5972;42.134;24.718;2022-12-18T08:34:17;100880.03;;;11.65;100.00
11830;BME280;5972;42.134;24.718;2022-12-18T08:36:44;100870.03;;;11.75;100.00
11830;BME280;5972;42.134;24.718;2022-12-18T08:39:11;100871.00;;;11.79;100.00
11830;BME280;5972;42.134;24.718;2022-12-18T08:41:38;100876.56;;;11.82;100.00
11830;BME280;5972;42.134;24.718;2022-12-18T08:44:06;100864.75;;;11.70;100.00
11830;BME280;5972;42.134;24.718;2022-12-18T08:47:07;100870.06;;;11.92;100.00
11830;BME280;5972;42.134;24.718;2022-12-18T08:49:34;100873.22;;;12.02;100.00
11830;BME280;5972;42.134;24.718;2022-12-18T08:52:01;100871.81;;;11.96;100.00
11830;BME280;5972;42.134;24.718;2022-12-18T08:54:29;100863.81;;;12.00;100.00
11830;BME280;5972;42.134;24.718;2022-12-18T08:56:56;100858.38;;;12.08;100.00
11830;BME280;5972;42.134;24.718;2022-12-18T08:59:22;100863.66;;;12.14;100.00
11830;BME280;5972;42.134;24.718;2022-12-18T09:01:49;100852.31;;;12.20;100.00
11830;BME280;5972;42.134;24.718;2022-12-18T09:04:17;100848.16;;;12.14;100.00
11830;BME280;5972;42.134;24.718;2022-12-18T09:06:44;100841.78;;;12.10;100.00
11830;BME280;5972;42.134;24.718;2022-12-18T09:09:11;100848.16;;;12.14;100.00
11830;BME280;5972;42.134;24.718;2022-12-18T09:11:38;100860.13;;;12.13;100.00
11830;BME280;5972;42.134;24.718;2022-12-18T09:14:05;100858.22;;;12.05;100.00
11830;BME280;5972;42.134;24.718;2022-12-18T09:16:33;100854.41;;;11.97;100.00
11830;BME280;5972;42.134;24.718;2022-12-18T09:19:01;100855.34;;;12.10;100.00
11830;BME280;5972;42.134;24.718;2022-12-18T09:21:31;100852.97;;;12.08;100.00
11830;BME280;5972;42.134;24.718;2022-12-18T09:23:58;100862.53;;;12.15;100.00
11830;BME280;5972;42.134;24.718;2022-12-18T09:26:26;100863.31;;;12.15;100.00
11830;BME280;5972;42.134;24.718;2022-12-18T09:28:53;100862.53;;;11.97;100.00
11830;BME280;5972;42.134;24.718;2022-12-18T09:31:22;100861.09;;;12.08;100.00
11830;BME280;5972;42.134;24.718;2022-12-18T09:33:49;100866.38;;;11.96;100.00
11830;BME280;5972;42.134;24.718;2022-12-18T09:36:17;100869.06;;;12.05;100.00
11830;BME280;5972;42.134;24.718;2022-12-18T09:38:45;100865.06;;;12.20;100.00
11830;BME280;5972;42.134;24.718;2022-12-18T09:41:31;100850.56;;;11.98;100.00
11830;BME280;5972;42.134;24.718;2022-12-18T09:44:03;100870.69;;;12.15;100.00
11830;BME280;5972;42.134;24.718;2022-12-18T09:46:34;100867.97;;;12.15;100.00
11830;BME280;5972;42.134;24.718;2022-12-18T09:49:05;100859.31;;;12.21;100.00
11830;BME280;5972;42.134;24.718;2022-12-18T09:51:39;100857.91;;;12.06;100.00
11830;BME280;5972;42.134;24.718;2022-12-18T09:54:12;100864.75;;;12.13;100.00
11830;BME280;5972;42.134;24.718;2022-12-18T09:56:42;100858.53;;;12.12;100.00
11830;BME280;5972;42.134;24.718;2022-12-18T09:59:18;100864.13;;;12.24;100.00
11830;BME280;5972;42.134;24.718;2022-12-18T10:01:47;100865.72;;;12.25;100.00
11830;BME280;5972;42.134;24.718;2022-12-18T10:04:14;100867.47;;;12.13;100.00
11830;BME280;5972;42.134;24.718;2022-12-18T10:06:46;100873.06;;;12.25;100.00
11830;BME280;5972;42.134;24.718;2022-12-18T10:09:24;100868.59;;;12.20;100.00
11830;BME280;5972;42.134;24.718;2022-12-18T10:12:02;100862.19;;;12.16;100.00
11830;BME280;5972;42.134;24.718;2022-12-18T10:14:36;100856.44;;;12.26;100.00
11830;BME280;5972;42.134;24.718;2022-12-18T10:17:14;100856.28;;;12.23;100.00
11830;BME280;5972;42.134;24.718;2022-12-18T10:19:50;100858.69;;;12.16;100.00
11830;BME280;5972;42.134;24.718;2022-12-18T10:22:25;100842.91;;;12.09;100.00
11830;BME280;5972;42.134;24.718;2022-12-18T10:25:03;100861.22;;;12.21;100.00
11830;BME280;5972;42.134;24.718;2022-12-18T10:27:31;100854.69;;;12.04;100.00
11830;BME280;5972;42.134;24.718;2022-12-18T10:29:58;100873.03;;;12.16;100.00
11830;BME280;5972;42.134;24.718;2022-12-18T10:32:29;100864.91;;;12.25;100.00
11830;BME280;5972;42.134;24.718;2022-12-18T10:34:57;100859.47;;;12.25;100.00
11830;BME280;5972;42.134;24.718;2022-12-18T10:37:26;100869.53;;;12.24;100.00
11830;BME280;5972;42.134;24.718;2022-12-18T10:40:10;100866.81;;;12.24;100.00
11830;BME280;5972;42.134;24.718;2022-12-18T10:42:38;100872.25;;;12.07;100.00
11830;BME280;5972;42.134;24.718;2022-12-18T10:45:12;100869.56;;;12.07;100.00
11830;BME280;5972;42.134;24.718;2022-12-18T10:47:42;100877.69;;;12.07;100.00
11830;BME280;5972;42.134;24.718;2022-12-18T10:50:19;100892.06;;;12.07;100.00
11830;BME280;5972;42.134;24.718;2022-12-18T10:52:55;100894.44;;;12.00;100.00
11830;BME280;5972;42.134;24.718;2022-12-18T10:55:24;100894.28;;;11.88;100.00
11830;BME280;5972;42.134;24.718;2022-12-18T10:58:08;100888.56;;;11.81;100.00
11830;BME280;5972;42.134;24.718;2022-12-18T11:00:39;100894.44;;;11.83;100.00
11830;BME280;5972;42.134;24.718;2022-12-18T11:03:30;100882.59;;;11.53;100.00
11830;BME280;5972;42.134;24.718;2022-12-18T11:06:06;100896.31;;;11.57;100.00
11830;BME280;5972;42.134;24.718;2022-12-18T11:08:33;100887.88;;;11.58;100.00
11830;BME280;5972;42.134;24.718;2022-12-18T11:11:01;100888.63;;;11.50;100.00
11830;BME280;5972;42.134;24.718;2022-12-18T11:13:29;100899.47;;;11.42;100.00
11830;BME280;5972;42.134;24.718;2022-12-18T11:15:58;100900.22;;;11.25;100.00
11830;BME280;5972;42.134;24.718;2022-12-18T11:18:27;100900.88;;;11.31;100.00
11830;BME280;5972;42.134;24.718;2022-12-18T11:20:56;100908.56;;;10.98;100.00
11830;BME280;5972;42.134;24.718;2022-12-18T11:23:25;100906.44;;;10.86;100.00
11830;BME280;5972;42.134;24.718;2022-12-18T11:26:04;100900.63;;;10.70;100.00
11830;BME280;5972;42.134;24.718;2022-12-18T11:28:38;100903.91;;;10.59;100.00
11830;BME280;5972;42.134;24.718;2022-12-18T11:31:19;100900.22;;;10.55;100.00
11830;BME280;5972;42.134;24.718;2022-12-18T11:33:51;100899.59;;;10.58;100.00
11830;BME280;5972;42.134;24.718;2022-12-18T11:36:20;100897.38;;;10.60;100.00
11830;BME280;5972;42.134;24.718;2022-12-18T11:38:49;100902.63;;;10.56;100.00
11830;BME280;5972;42.134;24.718;2022-12-18T11:41:26;100905.19;;;10.61;100.00
11830;BME280;5972;42.134;24.718;2022-12-18T11:44:18;100901.97;;;10.59;100.00
11830;BME280;5972;42.134;24.718;2022-12-18T11:46:51;100898.16;;;10.60;100.00
11830;BME280;5972;42.134;24.718;2022-12-18T11:49:25;100909.41;;;10.76;100.00
11830;BME280;5972;42.134;24.718;2022-12-18T11:51:56;100909.81;;;10.92;100.00
11830;BME280;5972;42.134;24.718;2022-12-18T11:54:26;100910.00;;;11.04;100.00
11830;BME280;5972;42.134;24.718;2022-12-18T11:56:57;100904.34;;;11.14;100.00
11830;BME280;5972;42.134;24.718;2022-12-18T11:59:33;100907.84;;;11.14;100.00
11830;BME280;5972;42.134;24.718;2022-12-18T12:02:21;100913.34;;;11.40;100.00
11830;BME280;5972;42.134;24.718;2022-12-18T12:05:09;100916.69;;;11.46;100.00
11830;BME280;5972;42.134;24.718;2022-12-18T12:07:43;100918.91;;;11.35;100.00
11830;BME280;5972;42.134;24.718;2022-12-18T12:10:24;100917.34;;;11.51;100.00
11830;BME280;5972;42.134;24.718;2022-12-18T12:13:11;100913.38;;;11.57;100.00
11830;BME280;5972;42.134;24.718;2022-12-18T12:15:49;100914.97;;;11.58;100.00
11830;BME280;5972;42.134;24.718;2022-12-18T12:18:30;100918.63;;;11.62;100.00
11830;BME280;5972;42.134;24.718;2022-12-18T12:21:07;100888.63;;;11.42;100.00
11830;BME280;5972;42.134;24.718;2022-12-18T12:23:42;100914.66;;;11.68;100.00
11830;BME280;5972;42.134;24.718;2022-12-18T12:26:13;100922.94;;;11.72;100.00
11830;BME280;5972;42.134;24.718;2022-12-18T12:29:01;100930.91;;;11.60;100.00
11830;BME280;5972;42.134;24.718;2022-12-18T12:31:40;100928.38;;;11.63;100.00
11830;BME280;5972;42.134;24.718;2022-12-18T12:34:16;100931.25;;;11.67;100.00
11830;BME280;5972;42.134;24.718;2022-12-18T12:36:52;100925.19;;;11.70;100.00
11830;BME280;5972;42.134;24.718;2022-12-18T12:39:31;100947.66;;;11.62;100.00
11830;BME280;5972;42.134;24.718;2022-12-18T12:41:59;100944.59;;;11.55;100.00
11830;BME280;5972;42.134;24.718;2022-12-18T12:44:49;100941.75;;;11.60;100.00
11830;BME280;5972;42.134;24.718;2022-12-18T12:47:21;100950.06;;;11.63;100.00
11830;BME280;5972;42.134;24.718;2022-12-18T12:49:49;100964.88;;;11.66;100.00
11830;BME280;5972;42.134;24.718;2022-12-18T12:52:22;100960.41;;;11.61;100.00
11830;BME280;5972;42.134;24.718;2022-12-18T12:54:54;100962.63;;;11.59;100.00
11830;BME280;5972;42.134;24.718;2022-12-18T12:57:24;100967.56;;;11.49;100.00
11830;BME280;5972;42.134;24.718;2022-12-18T13:00:01;100983.66;;;11.54;100.00